Time;durP1;ratioP1;P1;durP2;ratioP2;P2;SDS_P1;SDS_P2;PMS_P1;PMS_P2;Temp;Humidity;BMP_temperature;BMP_pressure;BME280_temperature;BME280_humidity;BME280_pressure;Samples;Min_cycle;Max_cycle;Signal;HPM_P1;HPM_P2
2023/05/31 04:01:06;;;;;;;0.60;0.10;;;14.70;19.00;;;;;;5676968;23;20559;-72
2023/05/31 04:03:33;;;;;;;0.60;0.10;;;14.80;28.00;;;;;;4899590;29;20442;-72
2023/05/31 04:06:01;;;;;;;1.10;0.60;;;14.70;29.00;;;;;;4899315;29;20458;-73
2023/05/31 04:08:29;;;;;;;0.60;0.20;;;14.60;23.90;;;;;;4899382;29;20447;-74
2023/05/31 04:10:57;;;;;;;0.60;0.10;;;14.60;24.70;;;;;;4898911;29;20613;-72
2023/05/31 04:13:26;;;;;;;85.00;14.60;;;14.50;25.10;;;;;;4898784;29;20454;-71
2023/05/31 04:15:54;;;;;;;10.67;9.73;;;14.50;33.90;;;;;;4899534;29;20549;-73
2023/05/31 04:18:24;;;;;;;0.70;0.30;;;14.50;29.70;;;;;;4898855;29;20493;-73
2023/05/31 04:20:52;;;;;;;0.60;0.20;;;14.50;30.60;;;;;;4898631;29;20841;-72
2023/05/31 04:23:20;;;;;;;0.90;0.40;;;14.50;41.30;;;;;;4898601;29;20541;-73
2023/05/31 04:25:48;;;;;;;0.80;0.40;;;14.50;40.40;;;;;;4898912;29;20823;-72
2023/05/31 04:28:18;;;;;;;0.60;0.10;;;14.50;32.00;;;;;;4898730;29;20458;-74
2023/05/31 04:30:46;;;;;;;0.70;0.47;;;14.50;34.50;;;;;;4898024;29;20493;-73
2023/05/31 04:33:17;;;;;;;2.30;0.70;;;14.50;44.00;;;;;;4902669;29;20452;-73
2023/05/31 04:35:46;;;;;;;0.60;0.10;;;14.60;34.80;;;;;;4917767;29;20445;-74
2023/05/31 04:38:16;;;;;;;0.70;0.40;;;14.50;45.10;;;;;;4917788;29;20861;-72
2023/05/31 04:40:44;;;;;;;0.60;0.20;;;14.70;33.40;;;;;;4913662;29;20485;-73
2023/05/31 04:43:11;;;;;;;0.70;0.30;;;14.70;32.00;;;;;;4918429;29;20479;-72
2023/05/31 04:45:40;;;;;;;1.10;1.10;;;14.70;31.80;;;;;;4919572;29;20498;-73
2023/05/31 04:48:08;;;;;;;0.60;0.10;;;14.80;31.70;;;;;;4917676;29;20454;-73
2023/05/31 04:50:37;;;;;;;0.60;0.20;;;14.80;30.60;;;;;;4916848;29;20490;-73
2023/05/31 04:53:06;;;;;;;0.60;0.10;;;;;;;;;;4916493;29;20486;-73
2023/05/31 04:55:34;;;;;;;0.60;0.10;;;14.80;31.50;;;;;;4917125;29;20462;-73
2023/05/31 04:58:02;;;;;;;0.60;0.20;;;14.80;30.80;;;;;;4917129;29;20537;-73
2023/05/31 05:00:30;;;;;;;0.80;0.40;;;14.80;30.30;;;;;;4916341;29;20597;-73
2023/05/31 05:02:58;;;;;;;0.60;0.30;;;14.80;31.90;;;;;;4916715;29;20876;-73
2023/05/31 05:05:27;;;;;;;0.60;0.20;;;14.80;31.60;;;;;;4916694;29;20508;-73
2023/05/31 05:07:54;;;;;;;0.70;0.40;;;14.80;31.70;;;;;;4915305;29;20546;-72
2023/05/31 05:10:24;;;;;;;0.60;0.10;;;14.80;31.50;;;;;;4912880;29;20508;-74
2023/05/31 05:12:52;;;;;;;2.30;1.27;;;14.80;31.80;;;;;;4897431;29;20477;-73
2023/05/31 05:15:20;;;;;;;1.17;1.07;;;14.80;41.40;;;;;;4897581;29;20549;-75
2023/05/31 05:17:48;;;;;;;0.60;0.10;;;14.80;41.30;;;;;;4909678;29;20458;-73
2023/05/31 05:20:16;;;;;;;0.60;0.10;;;14.90;29.90;;;;;;4916049;29;20961;-72
2023/05/31 05:22:51;;;;;;;0.60;0.20;;;15.00;30.00;;;;;;4916091;29;20861;-71
2023/05/31 05:25:21;;;;;;;0.60;0.20;;;15.10;29.00;;;;;;4916271;29;20479;-73
2023/05/31 05:27:50;;;;;;;1.13;0.67;;;15.10;27.40;;;;;;4913204;29;20459;-72
2023/05/31 05:30:18;;;;;;;0.70;0.30;;;15.10;37.30;;;;;;4895457;29;20541;-73
2023/05/31 05:32:46;;;;;;;1.03;0.50;;;15.10;27.10;;;;;;4896455;29;20570;-73
2023/05/31 05:35:15;;;;;;;0.60;0.10;;;15.10;27.40;;;;;;4896848;29;20881;-72
2023/05/31 05:37:43;;;;;;;0.60;0.10;;;15.20;28.70;;;;;;4896538;29;20456;-73
2023/05/31 05:40:11;;;;;;;0.60;0.30;;;15.10;38.10;;;;;;4896684;29;20454;-73
2023/05/31 05:42:39;;;;;;;0.60;0.17;;;15.30;24.70;;;;;;4895262;29;20469;-72
2023/05/31 05:45:10;;;;;;;0.70;0.30;;;15.40;24.60;;;;;;4877922;29;20494;-73
2023/05/31 05:47:38;;;;;;;0.60;0.10;;;15.50;22.60;;;;;;4878318;29;20503;-72
2023/05/31 05:50:07;;;;;;;0.60;0.20;;;15.50;22.00;;;;;;4877553;29;20456;-70
2023/05/31 05:52:35;;;;;;;0.93;0.47;;;15.70;22.30;;;;;;4884548;29;20939;-72
2023/05/31 05:55:03;;;;;;;0.60;0.10;;;15.70;17.60;;;;;;4902495;29;20500;-73
2023/05/31 05:57:32;;;;;;;0.60;0.20;;;15.70;26.10;;;;;;4918518;29;20441;-73
2023/05/31 06:00:00;;;;;;;1.47;0.30;;;15.80;14.90;;;;;;4923649;29;20462;-72
2023/05/31 06:02:29;;;;;;;0.60;0.20;;;15.90;12.90;;;;;;4917726;29;20528;-74
2023/05/31 06:04:58;;;;;;;1.77;1.67;;;15.90;13.80;;;;;;4916426;29;20552;-73
2023/05/31 06:07:26;;;;;;;1.07;1.00;;;16.00;14.20;;;;;;4917125;29;20454;-73
2023/05/31 06:09:54;;;;;;;0.60;0.20;;;16.00;13.20;;;;;;4917741;29;20542;-73
2023/05/31 06:12:22;;;;;;;0.60;0.10;;;16.10;12.60;;;;;;4878586;29;21115;-73
2023/05/31 06:14:50;;;;;;;0.70;0.30;;;16.20;12.90;;;;;;4893682;29;20463;-73
2023/05/31 06:17:20;;;;;;;0.60;0.20;;;16.30;11.00;;;;;;4897791;29;20463;-73
2023/05/31 06:19:50;;;;;;;0.60;0.10;;;16.40;7.10;;;;;;4897729;29;20453;-73
2023/05/31 06:22:18;;;;;;;0.60;0.10;;;16.50;6.60;;;;;;4897086;29;20474;-72
2023/05/31 06:24:46;;;;;;;1.33;0.47;;;16.60;15.30;;;;;;4912914;29;20477;-72
2023/05/31 06:27:15;;;;;;;0.60;0.20;;;16.60;1.00;;;;;;4919081;29;20527;-73
2023/05/31 06:29:46;;;;;;;1.03;0.93;;;16.70;1.00;;;;;;4922623;29;20464;-73
2023/05/31 06:32:14;;;;;;;0.60;0.10;;;16.70;1.00;;;;;;4922567;29;20495;-74
2023/05/31 06:34:42;;;;;;;0.60;0.20;;;16.80;6.90;;;;;;4922327;29;20484;-72
2023/05/31 06:37:12;;;;;;;1.07;0.50;;;16.80;1.00;;;;;;4919714;29;20494;-74
2023/05/31 06:39:39;;;;;;;0.60;0.10;;;16.90;1.00;;;;;;4920979;29;20885;-73
2023/05/31 06:42:09;;;;;;;0.60;0.10;;;16.90;1.00;;;;;;4921222;29;20557;-73
2023/05/31 06:44:37;;;;;;;0.60;0.10;;;17.00;1.40;;;;;;4921241;29;20469;-73
2023/05/31 06:47:22;;;;;;;0.60;0.13;;;17.20;1.00;;;;;;4905830;29;20465;-73
2023/05/31 06:49:50;;;;;;;2.00;1.90;;;17.20;1.00;;;;;;4901297;29;20962;-74
2023/05/31 06:52:19;;;;;;;1.20;1.07;;;17.30;1.00;;;;;;4901788;29;20485;-73
2023/05/31 06:54:47;;;;;;;0.60;0.10;;;17.30;1.00;;;;;;4902516;29;20545;-73
2023/05/31 06:57:15;;;;;;;1.37;1.07;;;17.40;1.00;;;;;;4901062;29;20441;-73
2023/05/31 06:59:43;;;;;;;0.60;0.20;;;17.50;1.00;;;;;;4902131;29;20490;-73
2023/05/31 07:02:11;;;;;;;5.03;0.60;;;17.60;1.00;;;;;;4906555;29;20475;-74
2023/05/31 07:04:39;;;;;;;0.60;0.20;;;17.60;1.00;;;;;;4919356;29;20539;-72
2023/05/31 07:07:09;;;;;;;0.60;0.10;;;17.70;1.00;;;;;;4919503;29;20510;-73
2023/05/31 07:09:38;;;;;;;0.60;0.10;;;17.80;1.00;;;;;;4902653;29;20491;-73
2023/05/31 07:12:07;;;;;;;1.37;0.80;;;17.90;1.00;;;;;;4890021;29;20481;-73
2023/05/31 07:14:35;;;;;;;0.60;0.10;;;17.90;1.00;;;;;;4889231;29;20487;-73
2023/05/31 07:17:04;;;;;;;4.10;1.23;;;18.00;1.00;;;;;;4893362;29;20509;-73
2023/05/31 07:19:32;;;;;;;0.60;0.30;;;18.00;1.00;;;;;;4891630;29;20456;-73
2023/05/31 07:21:59;;;;;;;0.60;0.10;;;18.00;1.00;;;;;;4889845;29;20461;-73
2023/05/31 07:24:27;;;;;;;0.70;0.40;;;18.10;1.00;;;;;;4893245;29;20818;-73
2023/05/31 07:26:57;;;;;;;0.60;0.10;;;18.10;1.00;;;;;;4899564;29;21010;-73
2023/05/31 07:29:25;;;;;;;0.60;0.10;;;18.20;1.00;;;;;;4900498;29;20455;-74
2023/05/31 07:31:53;;;;;;;0.60;0.20;;;18.20;1.00;;;;;;4891188;29;20482;-73
2023/05/31 07:34:20;;;;;;;0.60;0.20;;;18.20;1.00;;;;;;4892755;29;20535;-73
2023/05/31 07:36:49;;;;;;;0.70;0.60;;;18.30;1.00;;;;;;4892144;29;20501;-73
2023/05/31 07:39:17;;;;;;;0.60;0.10;;;18.30;1.00;;;;;;4903129;29;20459;-73
2023/05/31 07:41:44;;;;;;;0.60;0.20;;;18.40;1.00;;;;;;4898759;29;20524;-73
2023/05/31 07:44:16;;;;;;;1.10;0.60;;;18.50;1.00;;;;;;4898137;29;20516;-74
2023/05/31 07:46:44;;;;;;;0.90;0.40;;;18.60;1.00;;;;;;4905059;29;20466;-72
2023/05/31 07:49:12;;;;;;;0.60;0.10;;;18.60;1.00;;;;;;4901003;29;20548;-75
2023/05/31 07:51:40;;;;;;;0.60;0.20;;;18.70;1.00;;;;;;4894875;29;20462;-73
2023/05/31 07:54:08;;;;;;;0.60;0.10;;;18.70;1.00;;;;;;4899051;29;20453;-73
2023/05/31 07:56:36;;;;;;;0.60;0.10;;;18.80;1.00;;;;;;4899701;29;20955;-73
2023/05/31 07:59:04;;;;;;;0.60;0.10;;;18.90;1.00;;;;;;4899544;29;20463;-74
2023/05/31 08:01:34;;;;;;;1.10;0.77;;;19.00;1.00;;;;;;4899251;29;20485;-73
2023/05/31 08:04:07;;;;;;;1.77;1.20;;;19.00;1.00;;;;;;4899894;29;20457;-73
2023/05/31 08:06:36;;;;;;;0.60;0.20;;;19.10;1.00;;;;;;4899248;29;20504;-73
2023/05/31 08:09:04;;;;;;;0.60;0.10;;;19.20;1.00;;;;;;4899353;29;20505;-72
2023/05/31 08:11:32;;;;;;;0.60;0.20;;;19.30;1.00;;;;;;4886396;29;20510;-77
2023/05/31 08:14:00;;;;;;;0.60;0.10;;;19.30;1.00;;;;;;4887734;29;21025;-73
2023/05/31 08:16:28;;;;;;;0.87;0.40;;;19.30;1.00;;;;;;4903994;29;20949;-73
2023/05/31 08:18:58;;;;;;;0.60;0.20;;;19.40;1.00;;;;;;4902856;29;20918;-72
2023/05/31 08:21:26;;;;;;;0.70;0.20;;;19.60;1.00;;;;;;4898940;29;20484;-73
2023/05/31 08:23:54;;;;;;;0.60;0.10;;;19.70;1.00;;;;;;4890515;29;20538;-73
2023/05/31 08:26:22;;;;;;;0.60;0.10;;;19.70;1.00;;;;;;4898728;29;20536;-74
2023/05/31 08:28:50;;;;;;;1.90;0.60;;;19.80;1.00;;;;;;4903770;29;20446;-73
2023/05/31 08:31:18;;;;;;;0.67;0.33;;;20.00;1.00;;;;;;4899253;29;20515;-73
2023/05/31 08:33:58;;;;;;;0.60;0.20;;;20.00;1.00;;;;;;4902846;29;20540;-73
2023/05/31 08:36:27;;;;;;;0.60;0.20;;;20.10;1.00;;;;;;4892261;29;20518;-73
2023/05/31 08:38:55;;;;;;;0.80;0.20;;;20.10;1.00;;;;;;4898491;29;20887;-74
2023/05/31 08:41:25;;;;;;;0.60;0.30;;;20.30;1.00;;;;;;4893817;29;20476;-73
2023/05/31 08:43:53;;;;;;;0.90;0.60;;;20.30;1.00;;;;;;4895188;29;20445;-72
2023/05/31 08:46:21;;;;;;;0.70;0.20;;;20.40;1.00;;;;;;4897878;29;20532;-72
2023/05/31 08:48:57;;;;;;;2.10;0.87;;;20.50;1.00;;;;;;4897454;29;20541;-74
2023/05/31 08:51:27;;;;;;;0.60;0.20;;;20.40;1.00;;;;;;4895906;29;20481;-73
2023/05/31 08:53:58;;;;;;;0.60;0.20;;;20.50;1.00;;;;;;4894997;29;20563;-73
2023/05/31 08:56:27;;;;;;;0.60;0.10;;;20.50;1.00;;;;;;4898837;29;20457;-74
2023/05/31 08:58:56;;;;;;;0.60;0.20;;;20.50;1.00;;;;;;4897644;29;20540;-73
2023/05/31 09:01:27;;;;;;;1.10;0.67;;;20.50;1.00;;;;;;4896142;29;20541;-73
2023/05/31 09:03:56;;;;;;;0.70;0.40;;;20.50;1.00;;;;;;4899604;29;20446;-72
2023/05/31 09:06:25;;;;;;;0.60;0.20;;;;;;;;;;4899394;29;20604;-74
2023/05/31 09:08:54;;;;;;;0.60;0.10;;;20.70;1.00;;;;;;4891343;29;20534;-73
2023/05/31 09:11:23;;;;;;;1.57;0.53;;;20.90;1.00;;;;;;4898961;29;20481;-74
2023/05/31 09:13:51;;;;;;;0.60;0.10;;;21.00;1.00;;;;;;4898118;29;20500;-73
2023/05/31 09:16:20;;;;;;;0.90;0.70;;;21.00;1.00;;;;;;4898373;29;21046;-75
2023/05/31 09:18:48;;;;;;;2.00;1.07;;;20.90;1.00;;;;;;4897537;29;20477;-74
2023/05/31 09:21:16;;;;;;;0.60;0.20;;;20.90;1.00;;;;;;4897067;29;20516;-74
2023/05/31 09:23:54;;;;;;;0.60;0.20;;;21.00;1.00;;;;;;4897178;29;20489;-74
2023/05/31 09:26:23;;;;;;;3.40;0.40;;;21.10;1.00;;;;;;4897350;29;20860;-72
2023/05/31 09:28:52;;;;;;;0.70;0.40;;;21.20;1.00;;;;;;4896186;29;20830;-74
2023/05/31 09:31:21;;;;;;;0.80;0.43;;;21.30;1.00;;;;;;4897477;29;20498;-73
2023/05/31 09:33:51;;;;;;;0.60;0.20;;;19.10;1.00;;;;;;4895244;29;20977;-73
2023/05/31 09:36:24;;;;;;;0.60;0.23;;;21.40;1.00;;;;;;4898093;29;20545;-73
2023/05/31 09:39:01;;;;;;;0.60;0.10;;;21.40;1.00;;;;;;4897107;29;20473;-71
2023/05/31 09:41:30;;;;;;;1.03;0.47;;;21.40;1.00;;;;;;4897369;29;20473;-73
2023/05/31 09:43:58;;;;;;;0.70;0.20;;;21.50;1.00;;;;;;4896980;29;20438;-73
2023/05/31 09:46:26;;;;;;;0.60;0.20;;;21.40;1.00;;;;;;4887957;29;20447;-72
2023/05/31 09:48:59;;;;;;;0.70;0.30;;;21.50;1.00;;;;;;4889362;29;20984;-72
2023/05/31 09:51:32;;;;;;;0.60;0.10;;;21.60;1.00;;;;;;4897385;29;20484;-73
2023/05/31 09:54:06;;;;;;;0.60;0.10;;;21.60;1.00;;;;;;4898332;29;20829;-74
2023/05/31 09:56:38;;;;;;;0.60;0.10;;;21.80;1.00;;;;;;4895254;29;20925;-73
2023/05/31 09:59:06;;;;;;;0.60;0.20;;;22.10;1.00;;;;;;4887500;29;21026;-74
2023/05/31 10:01:36;;;;;;;0.60;0.10;;;22.20;1.00;;;;;;4889038;29;20478;-72
2023/05/31 10:04:06;;;;;;;0.70;0.50;;;22.00;1.00;;;;;;4888208;29;20439;-74
2023/05/31 10:06:35;;;;;;;0.70;0.30;;;22.00;1.00;;;;;;4894706;29;20538;-73
2023/05/31 10:09:05;;;;;;;0.70;0.30;;;22.20;1.00;;;;;;4897017;29;20571;-73
2023/05/31 10:11:35;;;;;;;0.60;0.10;;;22.30;1.00;;;;;;4897184;29;20474;-74
2023/05/31 10:14:08;;;;;;;1.17;0.43;;;22.30;1.00;;;;;;4897072;29;20489;-73
2023/05/31 10:16:45;;;;;;;0.70;0.20;;;22.40;1.00;;;;;;4971302;23;20499;-80
2023/05/31 10:19:17;;;;;;;0.70;0.30;;;22.30;1.00;;;;;;4957057;29;20491;-78
2023/05/31 10:21:46;;;;;;;0.70;0.20;;;22.30;1.00;;;;;;4956496;29;20448;-79
2023/05/31 10:24:22;;;;;;;0.67;0.20;;;22.30;1.00;;;;;;4957803;29;20516;-77
2023/05/31 10:27:03;;;;;;;0.80;0.50;;;22.30;1.00;;;;;;4940308;29;20488;-78
2023/05/31 10:29:36;;;;;;;0.70;0.20;;;22.30;1.00;;;;;;4940237;29;20449;-80
2023/05/31 10:32:10;;;;;;;0.60;0.10;;;22.30;1.00;;;;;;4940245;29;20516;-79
2023/05/31 10:34:38;;;;;;;1.00;0.27;;;22.50;1.00;;;;;;4938329;29;20485;-79
2023/05/31 10:37:08;;;;;;;0.60;0.20;;;22.60;1.00;;;;;;4938185;29;20440;-79
2023/05/31 10:39:44;;;;;;;1.80;0.60;;;22.80;1.00;;;;;;4939367;29;20449;-78
2023/05/31 10:42:20;;;;;;;1.80;0.83;;;22.80;1.00;;;;;;4942101;29;20440;-81
2023/05/31 10:44:53;;;;;;;0.70;0.43;;;22.70;1.00;;;;;;4941429;29;20476;-78
2023/05/31 10:47:30;;;;;;;0.70;0.10;;;22.80;1.00;;;;;;4935428;29;20457;-79
2023/05/31 10:50:00;;;;;;;0.70;0.10;;;22.80;1.00;;;;;;4930666;29;20440;-79
2023/05/31 10:52:30;;;;;;;0.70;0.30;;;22.90;1.00;;;;;;4939059;29;20453;-77
2023/05/31 10:55:18;;;;;;;0.70;0.10;;;22.90;1.00;;;;;;4938701;29;20549;-79
2023/05/31 10:57:52;;;;;;;0.70;0.20;;;23.00;1.00;;;;;;4941015;29;20425;-78
2023/05/31 11:00:21;;;;;;;3.53;0.30;;;23.00;1.00;;;;;;4939731;29;20448;-80
2023/05/31 11:02:49;;;;;;;0.70;0.27;;;23.00;1.00;;;;;;4939301;29;20454;-78
2023/05/31 11:05:21;;;;;;;0.70;0.10;;;;;;;;;;4944086;29;20460;-78
2023/05/31 11:07:50;;;;;;;0.70;0.10;;;23.10;1.00;;;;;;4938537;29;20458;-80
2023/05/31 11:10:27;;;;;;;0.60;0.20;;;23.10;1.00;;;;;;4939050;29;20469;-80
2023/05/31 11:12:58;;;;;;;0.70;0.30;;;23.10;1.00;;;;;;4938574;29;20484;-79
2023/05/31 11:15:39;;;;;;;0.63;0.20;;;23.20;1.00;;;;;;4936648;29;20504;-80
2023/05/31 11:18:10;;;;;;;0.63;0.13;;;23.20;1.00;;;;;;4940955;29;20485;-79
2023/05/31 11:20:38;;;;;;;1.00;0.30;;;23.20;1.00;;;;;;4939324;29;20451;-79
2023/05/31 11:23:30;;;;;;;0.70;0.10;;;23.30;1.00;;;;;;4940352;29;20454;-79
2023/05/31 11:26:10;;;;;;;2.30;0.33;;;23.40;1.00;;;;;;4940630;29;20526;-79
2023/05/31 11:28:58;;;;;;;0.67;0.23;;;23.30;1.00;;;;;;4941761;29;20449;-79
2023/05/31 11:32:01;;;;;;;0.70;0.30;;;23.30;1.00;;;;;;4945190;29;20510;-75
2023/05/31 11:34:33;;;;;;;0.70;0.20;;;23.30;1.00;;;;;;4947091;28;20543;-77
2023/05/31 11:37:03;;;;;;;0.70;0.10;;;23.40;1.00;;;;;;4922012;29;20469;-76
2023/05/31 11:39:31;;;;;;;0.70;0.20;;;23.40;1.00;;;;;;4928910;29;20451;-78
2023/05/31 11:42:04;;;;;;;0.70;0.20;;;23.60;1.00;;;;;;4942187;29;20872;-76
2023/05/31 11:44:32;;;;;;;1.10;0.53;;;;;;;;;;4926347;29;20458;-77
2023/05/31 11:47:04;;;;;;;0.70;0.20;;;23.60;1.00;;;;;;4921991;29;20455;-76
2023/05/31 11:49:33;;;;;;;0.70;0.20;;;23.70;1.00;;;;;;4919800;29;20877;-77
2023/05/31 11:52:02;;;;;;;0.70;0.20;;;23.70;1.00;;;;;;4922216;29;20451;-75
2023/05/31 11:54:32;;;;;;;1.07;0.50;;;23.90;1.00;;;;;;4924351;29;20492;-78
2023/05/31 11:57:03;;;;;;;0.70;0.20;;;24.50;1.00;;;;;;4922032;29;20919;-76
2023/05/31 11:59:33;;;;;;;0.70;0.10;;;23.90;1.00;;;;;;4921758;29;20831;-77
2023/05/31 12:02:02;;;;;;;0.70;0.30;;;24.10;1.00;;;;;;4919661;29;20536;-78
2023/05/31 12:04:35;;;;;;;0.80;0.50;;;24.00;1.00;;;;;;4925510;29;20799;-76
2023/05/31 12:07:04;;;;;;;0.70;0.30;;;24.00;1.00;;;;;;4938551;29;20768;-77
2023/05/31 12:09:34;;;;;;;0.70;0.20;;;24.00;1.00;;;;;;4938525;29;20446;-78
2023/05/31 12:12:05;;;;;;;0.73;0.47;;;24.00;1.00;;;;;;4938056;29;20923;-77
2023/05/31 12:14:33;;;;;;;1.77;0.23;;;23.90;1.00;;;;;;4937396;29;20483;-75
2023/05/31 12:17:03;;;;;;;0.70;0.20;;;24.10;1.00;;;;;;4939615;29;20454;-74
2023/05/31 12:19:31;;;;;;;2.60;2.50;;;24.30;1.00;;;;;;4942211;29;20451;-75
2023/05/31 12:21:59;;;;;;;0.70;0.10;;;24.50;1.00;;;;;;4946655;29;20528;-75
2023/05/31 12:24:27;;;;;;;0.70;0.10;;;24.60;1.00;;;;;;4955974;29;20450;-75
2023/05/31 12:26:57;;;;;;;0.70;0.10;;;;;;;;;;4955644;28;20455;-73
2023/05/31 12:29:30;;;;;;;0.70;0.20;;;24.70;1.00;;;;;;4956086;29;20545;-75
2023/05/31 12:32:02;;;;;;;0.90;0.77;;;24.90;1.00;;;;;;4955991;28;20450;-74
2023/05/31 12:34:33;;;;;;;0.70;0.20;;;24.80;1.00;;;;;;4955534;28;20833;-75
2023/05/31 12:37:05;;;;;;;0.70;0.20;;;24.90;1.00;;;;;;4956050;28;20449;-75
2023/05/31 12:39:34;;;;;;;0.70;0.10;;;24.90;1.00;;;;;;4955695;28;20474;-75
2023/05/31 12:42:03;;;;;;;0.70;0.10;;;24.80;1.00;;;;;;4955057;29;20484;-74
2023/05/31 12:44:34;;;;;;;0.70;0.20;;;24.90;1.00;;;;;;4936329;29;20450;-75
2023/05/31 12:47:04;;;;;;;0.70;0.10;;;24.90;1.00;;;;;;4937899;29;20448;-75
2023/05/31 12:49:33;;;;;;;0.70;0.20;;;24.90;1.00;;;;;;4934859;28;20466;-76
2023/05/31 12:52:04;;;;;;;0.70;0.10;;;25.10;1.00;;;;;;4936497;29;20450;-76
2023/05/31 12:54:34;;;;;;;0.80;0.17;;;25.30;1.00;;;;;;4936057;29;20451;-75
2023/05/31 12:57:04;;;;;;;0.70;0.10;;;25.30;1.00;;;;;;4936358;29;20927;-76
2023/05/31 12:59:34;;;;;;;0.80;0.30;;;25.30;1.00;;;;;;4936463;29;20467;-75
2023/05/31 13:02:03;;;;;;;0.70;0.40;;;25.20;1.00;;;;;;4936067;29;20486;-75
2023/05/31 13:04:32;;;;;;;1.00;0.47;;;;;;;;;;4935448;29;20455;-74
2023/05/31 13:07:01;;;;;;;0.70;0.10;;;25.10;1.00;;;;;;4936318;29;20485;-74
2023/05/31 13:09:32;;;;;;;0.70;0.10;;;;;;;;;;4935794;29;20498;-75
2023/05/31 13:12:00;;;;;;;0.93;0.20;;;;;;;;;;4935651;29;21006;-75
2023/05/31 13:14:28;;;;;;;0.70;0.10;;;25.20;1.00;;;;;;4936328;29;20482;-75
2023/05/31 13:16:57;;;;;;;0.80;0.20;;;25.20;1.00;;;;;;4934912;29;20499;-75
2023/05/31 13:19:25;;;;;;;1.00;0.20;;;25.10;1.00;;;;;;4935720;29;20472;-74
2023/05/31 13:21:53;;;;;;;0.70;0.20;;;25.10;1.00;;;;;;4935272;29;20448;-76
2023/05/31 13:24:23;;;;;;;0.70;0.20;;;25.10;1.00;;;;;;4937034;29;20450;-74
2023/05/31 13:26:51;;;;;;;0.70;0.20;;;25.10;1.00;;;;;;4938336;29;20510;-76
2023/05/31 13:29:18;;;;;;;1.57;1.07;;;25.10;1.00;;;;;;4936419;29;20485;-73
2023/05/31 13:31:46;;;;;;;0.70;0.20;;;25.20;1.00;;;;;;4935921;29;20479;-74
2023/05/31 13:34:17;;;;;;;1.27;0.87;;;25.50;1.00;;;;;;4935093;29;20978;-75
2023/05/31 13:36:46;;;;;;;0.70;0.20;;;;;;;;;;4935328;29;20553;-75
2023/05/31 13:39:14;;;;;;;0.70;0.20;;;25.50;1.00;;;;;;4934994;29;20538;-75
2023/05/31 13:41:43;;;;;;;0.80;0.30;;;25.50;1.00;;;;;;4935134;29;20473;-74
2023/05/31 13:44:15;;;;;;;0.70;0.30;;;25.40;1.00;;;;;;4934837;29;20448;-75
2023/05/31 13:46:43;;;;;;;0.70;0.20;;;25.40;1.00;;;;;;4935137;29;20478;-74
2023/05/31 13:49:15;;;;;;;1.00;0.40;;;;;;;;;;4935419;29;20955;-75
2023/05/31 13:51:44;;;;;;;0.70;0.17;;;25.40;1.00;;;;;;4935552;29;20447;-75
2023/05/31 13:54:13;;;;;;;1.17;0.53;;;25.40;1.00;;;;;;4935094;29;20919;-75
2023/05/31 13:56:40;;;;;;;0.70;0.10;;;25.60;1.00;;;;;;4935264;29;20522;-74
2023/05/31 13:59:08;;;;;;;0.70;0.10;;;25.70;1.00;;;;;;4936159;29;20840;-74
2023/05/31 14:01:37;;;;;;;0.70;0.10;;;25.80;1.00;;;;;;4935933;29;20452;-76
2023/05/31 14:04:05;;;;;;;0.80;0.30;;;26.00;1.00;;;;;;4935993;29;20537;-77
2023/05/31 14:06:33;;;;;;;3.90;1.20;;;25.90;1.00;;;;;;4935510;29;20487;-74
2023/05/31 14:09:02;;;;;;;0.80;0.40;;;25.80;1.00;;;;;;4934962;29;20451;-75
2023/05/31 14:11:30;;;;;;;1.93;0.47;;;;;;;;;;4934583;29;20453;-75
2023/05/31 14:13:58;;;;;;;0.70;0.20;;;25.80;1.00;;;;;;4934582;29;20453;-75
2023/05/31 14:16:28;;;;;;;0.80;0.20;;;26.00;1.00;;;;;;4935029;29;20582;-74
2023/05/31 14:18:56;;;;;;;0.80;0.30;;;26.00;1.00;;;;;;4935654;29;20543;-75
2023/05/31 14:21:24;;;;;;;0.70;0.20;;;;;;;;;;4936457;29;20962;-75
2023/05/31 14:23:52;;;;;;;1.10;0.30;;;26.20;1.00;;;;;;4935724;29;20453;-75
2023/05/31 14:26:22;;;;;;;0.80;0.30;;;26.30;1.00;;;;;;4935210;29;20466;-74
2023/05/31 14:28:49;;;;;;;0.70;0.17;;;26.30;1.00;;;;;;4935282;29;20475;-74
2023/05/31 14:31:17;;;;;;;0.70;0.10;;;26.40;1.00;;;;;;4934740;29;20459;-75
2023/05/31 14:33:45;;;;;;;0.70;0.20;;;26.40;1.00;;;;;;4934647;29;20521;-74
2023/05/31 14:36:14;;;;;;;0.70;0.10;;;26.40;1.00;;;;;;4934686;29;20562;-76
2023/05/31 14:38:42;;;;;;;0.70;0.30;;;26.40;1.00;;;;;;4935297;29;21014;-75
2023/05/31 14:41:10;;;;;;;0.70;0.20;;;26.60;1.00;;;;;;4935079;29;20530;-76
2023/05/31 14:43:39;;;;;;;0.70;0.20;;;26.60;1.00;;;;;;4933363;29;20444;-76
2023/05/31 14:46:07;;;;;;;1.00;0.37;;;26.50;1.00;;;;;;4935370;29;20503;-74
2023/05/31 14:48:35;;;;;;;0.70;0.20;;;26.50;1.00;;;;;;4935113;29;20921;-75
2023/05/31 14:51:03;;;;;;;0.70;0.20;;;;;;;;;;4937781;29;20479;-75
2023/05/31 14:53:31;;;;;;;0.70;0.20;;;;;;;;;;4939113;29;20467;-76
2023/05/31 14:55:59;;;;;;;0.70;0.20;;;26.80;1.00;;;;;;4940398;29;20482;-74
2023/05/31 14:58:46;;;;;;;0.70;0.20;;;26.80;1.00;;;;;;4939183;29;20925;-74
2023/05/31 15:01:15;;;;;;;0.87;0.40;;;;;;;;;;4938140;29;20479;-75
2023/05/31 15:03:44;;;;;;;0.70;0.20;;;26.80;1.00;;;;;;4934948;29;20494;-75
2023/05/31 15:06:12;;;;;;;0.87;0.57;;;27.00;1.00;;;;;;4940546;29;20518;-75
2023/05/31 15:08:40;;;;;;;0.70;0.20;;;27.00;1.00;;;;;;4939433;29;20448;-75
2023/05/31 15:11:07;;;;;;;0.70;0.10;;;27.10;1.00;;;;;;4938884;29;20471;-75
2023/05/31 15:13:36;;;;;;;1.30;1.13;;;27.10;1.00;;;;;;4938045;29;20453;-75
2023/05/31 15:16:05;;;;;;;1.77;0.30;;;27.10;1.00;;;;;;4939100;29;20495;-75
2023/05/31 15:18:33;;;;;;;1.10;0.40;;;26.80;1.00;;;;;;4938768;29;20854;-76
2023/05/31 15:21:01;;;;;;;0.70;0.13;;;26.90;1.00;;;;;;4932070;29;20451;-75
2023/05/31 15:23:29;;;;;;;2.40;0.40;;;26.90;1.00;;;;;;4938053;29;20451;-76
2023/05/31 15:25:57;;;;;;;0.70;0.20;;;26.90;1.00;;;;;;4938778;29;20486;-75
2023/05/31 15:28:26;;;;;;;0.70;0.10;;;27.00;1.00;;;;;;4937898;29;20461;-74
2023/05/31 15:30:54;;;;;;;0.70;0.30;;;27.20;1.00;;;;;;4930751;29;20990;-76
2023/05/31 15:33:23;;;;;;;0.70;0.10;;;27.30;1.00;;;;;;4938791;29;20461;-76
2023/05/31 15:35:51;;;;;;;0.70;0.20;;;27.20;1.00;;;;;;4938070;29;20823;-75
2023/05/31 15:38:18;;;;;;;0.70;0.20;;;27.20;1.00;;;;;;4938054;29;20539;-74
2023/05/31 15:40:46;;;;;;;0.70;0.20;;;27.20;1.00;;;;;;4938454;29;20927;-76
2023/05/31 15:43:14;;;;;;;1.03;0.87;;;27.20;1.00;;;;;;4929063;29;20976;-74
2023/05/31 15:45:45;;;;;;;0.70;0.17;;;27.30;1.00;;;;;;4929971;29;20522;-74
2023/05/31 15:48:13;;;;;;;0.80;0.40;;;27.30;1.00;;;;;;4937047;29;20479;-74
2023/05/31 15:50:42;;;;;;;1.17;0.57;;;27.30;1.00;;;;;;4936780;29;20456;-74
2023/05/31 15:53:11;;;;;;;0.90;0.20;;;;;;;;;;4936716;29;20810;-76
2023/05/31 15:55:39;;;;;;;1.10;0.77;;;27.40;1.00;;;;;;4928680;29;20459;-75
2023/05/31 15:58:07;;;;;;;0.70;0.20;;;27.40;1.00;;;;;;4937050;29;20483;-76
2023/05/31 16:00:35;;;;;;;0.70;0.10;;;;;;;;;;4937125;29;20826;-75
2023/05/31 16:03:03;;;;;;;0.80;0.30;;;27.60;1.00;;;;;;4936452;29;20447;-75
2023/05/31 16:05:32;;;;;;;0.70;0.20;;;27.70;1.00;;;;;;4938005;29;20554;-75
2023/05/31 16:08:04;;;;;;;0.80;0.40;;;27.70;1.00;;;;;;4938992;29;20458;-75
2023/05/31 16:10:32;;;;;;;0.80;0.20;;;27.80;1.00;;;;;;4936913;29;20880;-74
2023/05/31 16:13:03;;;;;;;0.70;0.20;;;27.80;1.00;;;;;;4936582;29;20447;-76
2023/05/31 16:15:30;;;;;;;3.33;0.73;;;28.00;1.00;;;;;;4950226;23;20513;-73
2023/05/31 16:17:58;;;;;;;6.43;0.60;;;28.00;1.00;;;;;;4917990;29;20494;-73
2023/05/31 16:20:28;;;;;;;0.70;0.10;;;28.00;1.00;;;;;;4911268;29;20498;-75
2023/05/31 16:22:58;;;;;;;0.70;0.20;;;27.90;1.00;;;;;;4915076;29;20532;-73
2023/05/31 16:25:27;;;;;;;0.70;0.20;;;27.80;1.00;;;;;;4918231;29;20479;-74
2023/05/31 16:27:55;;;;;;;0.70;0.10;;;27.80;1.00;;;;;;4915327;29;20865;-74
2023/05/31 16:30:22;;;;;;;0.70;0.30;;;28.00;1.00;;;;;;4906321;29;20467;-74
2023/05/31 16:32:50;;;;;;;2.20;0.87;;;28.00;1.00;;;;;;4919220;29;20499;-75
2023/05/31 16:35:18;;;;;;;0.70;0.30;;;28.00;1.00;;;;;;4922287;29;20577;-74
2023/05/31 16:37:46;;;;;;;1.07;0.30;;;28.00;1.00;;;;;;4923461;29;20544;-71
2023/05/31 16:40:15;;;;;;;0.80;0.30;;;27.80;1.00;;;;;;4921998;29;20515;-73
2023/05/31 16:42:44;;;;;;;0.70;0.10;;;27.90;1.00;;;;;;4922715;29;20492;-73
2023/05/31 16:45:12;;;;;;;0.70;0.20;;;28.10;1.00;;;;;;4923908;29;20454;-74
2023/05/31 16:47:40;;;;;;;0.70;0.20;;;29.00;1.00;;;;;;4923742;29;20535;-73
2023/05/31 16:50:08;;;;;;;0.70;0.30;;;28.00;1.00;;;;;;4923449;29;20446;-73
2023/05/31 16:52:36;;;;;;;0.77;0.23;;;28.00;1.00;;;;;;4921061;29;20881;-72
2023/05/31 16:55:05;;;;;;;1.00;0.40;;;28.20;1.00;;;;;;4916691;29;20559;-72
2023/05/31 16:57:33;;;;;;;0.70;0.10;;;28.20;1.00;;;;;;4917353;29;20548;-72
2023/05/31 17:00:02;;;;;;;0.70;0.17;;;28.50;1.00;;;;;;4917845;29;20453;-71
2023/05/31 17:02:30;;;;;;;1.47;0.83;;;28.70;1.00;;;;;;4917845;29;20452;-71
2023/05/31 17:04:59;;;;;;;0.80;0.30;;;28.60;1.00;;;;;;4918008;29;20536;-71
2023/05/31 17:07:27;;;;;;;0.70;0.20;;;28.30;1.00;;;;;;4917401;29;20441;-71
2023/05/31 17:09:55;;;;;;;1.07;0.73;;;28.10;1.00;;;;;;4917865;29;20991;-74
2023/05/31 17:12:23;;;;;;;0.70;0.20;;;27.80;1.00;;;;;;4916516;29;20456;-74